sensor_id;sensor_type;location;lat;lon;timestamp;pressure;altitude;pressure_sealevel;temperature;humidity
32251;BME280;41295;48.518;9.206;2022-11-15T00:01:27;96991.34;;;9.38;71.54
32251;BME280;41295;48.518;9.206;2022-11-15T00:03:30;97001.03;;;9.34;72.11
32251;BME280;41295;48.518;9.206;2022-11-15T00:05:34;96991.53;;;9.33;71.81
32251;BME280;41295;48.518;9.206;2022-11-15T00:07:37;96993.25;;;9.34;71.55
32251;BME280;41295;48.518;9.206;2022-11-15T00:09:56;96990.91;;;9.26;71.90
32251;BME280;41295;48.518;9.206;2022-11-15T00:12:00;96989.25;;;9.24;72.23
32251;BME280;41295;48.518;9.206;2022-11-15T00:14:03;96991.13;;;9.20;72.04
32251;BME280;41295;48.518;9.206;2022-11-15T00:16:05;96986.03;;;9.17;72.00
32251;BME280;41295;48.518;9.206;2022-11-15T00:18:12;96980.91;;;9.16;71.97
32251;BME280;41295;48.518;9.206;2022-11-15T00:20:15;96980.97;;;9.14;72.05
32251;BME280;41295;48.518;9.206;2022-11-15T00:22:18;96979.31;;;9.11;72.02
32251;BME280;41295;48.518;9.206;2022-11-15T00:24:20;96969.00;;;9.08;72.42
32251;BME280;41295;48.518;9.206;2022-11-15T00:26:23;96971.81;;;9.04;72.26
32251;BME280;41295;48.518;9.206;2022-11-15T00:28:27;96970.13;;;9.01;72.03
32251;BME280;41295;48.518;9.206;2022-11-15T00:30:30;96982.41;;;8.97;72.66
32251;BME280;41295;48.518;9.206;2022-11-15T00:32:35;96969.69;;;8.89;72.96
32251;BME280;41295;48.518;9.206;2022-11-15T00:34:38;96977.63;;;8.85;72.70
32251;BME280;41295;48.518;9.206;2022-11-15T00:36:40;96976.06;;;8.81;72.88
32251;BME280;41295;48.518;9.206;2022-11-15T00:38:43;96970.22;;;8.74;73.11
32251;BME280;41295;48.518;9.206;2022-11-15T00:40:46;96974.66;;;8.70;72.83
32251;BME280;41295;48.518;9.206;2022-11-15T00:42:48;96974.00;;;8.65;73.33
32251;BME280;41295;48.518;9.206;2022-11-15T00:44:52;96969.88;;;8.59;73.22
32251;BME280;41295;48.518;9.206;2022-11-15T00:46:55;96957.00;;;8.54;72.96
32251;BME280;41295;48.518;9.206;2022-11-15T00:48:57;96958.91;;;8.49;73.08
32251;BME280;41295;48.518;9.206;2022-11-15T00:51:00;96954.66;;;8.47;72.92
32251;BME280;41295;48.518;9.206;2022-11-15T00:53:02;96959.19;;;8.40;72.88
32251;BME280;41295;48.518;9.206;2022-11-15T00:55:06;96959.25;;;8.38;73.26
32251;BME280;41295;48.518;9.206;2022-11-15T00:57:08;96955.09;;;8.34;73.19
32251;BME280;41295;48.518;9.206;2022-11-15T00:59:11;96957.72;;;8.33;73.16
32251;BME280;41295;48.518;9.206;2022-11-15T01:01:15;96954.41;;;8.27;73.25
32251;BME280;41295;48.518;9.206;2022-11-15T01:03:17;96957.28;;;8.20;73.51
32251;BME280;41295;48.518;9.206;2022-11-15T01:05:21;96960.03;;;8.15;74.02
32251;BME280;41295;48.518;9.206;2022-11-15T01:07:23;96954.00;;;8.14;73.76
32251;BME280;41295;48.518;9.206;2022-11-15T01:09:26;96961.84;;;8.13;73.77
32251;BME280;41295;48.518;9.206;2022-11-15T01:11:29;96953.44;;;8.04;74.18
32251;BME280;41295;48.518;9.206;2022-11-15T01:13:32;96947.50;;;8.01;73.98
32251;BME280;41295;48.518;9.206;2022-11-15T01:15:39;96944.09;;;7.99;74.42
32251;BME280;41295;48.518;9.206;2022-11-15T01:17:43;96947.50;;;8.01;74.63
32251;BME280;41295;48.518;9.206;2022-11-15T01:19:46;96951.16;;;7.95;74.73
32251;BME280;41295;48.518;9.206;2022-11-15T01:21:49;96948.50;;;7.97;74.63
32251;BME280;41295;48.518;9.206;2022-11-15T01:23:52;96944.31;;;7.92;74.62
32251;BME280;41295;48.518;9.206;2022-11-15T01:25:58;96939.13;;;7.92;75.06
32251;BME280;41295;48.518;9.206;2022-11-15T01:28:01;96947.00;;;7.89;75.15
32251;BME280;41295;48.518;9.206;2022-11-15T01:30:05;96936.53;;;7.92;74.58
32251;BME280;41295;48.518;9.206;2022-11-15T01:32:07;96937.63;;;7.85;74.64
32251;BME280;41295;48.518;9.206;2022-11-15T01:34:12;96931.63;;;7.83;74.77
32251;BME280;41295;48.518;9.206;2022-11-15T01:36:18;96931.63;;;7.83;75.02
32251;BME280;41295;48.518;9.206;2022-11-15T01:38:22;96929.94;;;7.82;74.88
32251;BME280;41295;48.518;9.206;2022-11-15T01:40:25;96934.22;;;7.83;74.54
32251;BME280;41295;48.518;9.206;2022-11-15T01:42:28;96937.78;;;7.80;74.54
32251;BME280;41295;48.518;9.206;2022-11-15T01:44:43;96933.56;;;7.76;74.84
32251;BME280;41295;48.518;9.206;2022-11-15T01:46:47;96924.03;;;7.77;74.43
32251;BME280;41295;48.518;9.206;2022-11-15T01:48:51;96930.22;;;7.73;74.62
32251;BME280;41295;48.518;9.206;2022-11-15T01:50:58;96931.13;;;7.72;74.45
32251;BME280;41295;48.518;9.206;2022-11-15T01:53:01;96934.72;;;7.67;74.55
32251;BME280;41295;48.518;9.206;2022-11-15T01:55:08;96926.91;;;7.67;74.40
32251;BME280;41295;48.518;9.206;2022-11-15T01:57:12;96928.31;;;7.78;73.83
32251;BME280;41295;48.518;9.206;2022-11-15T01:59:15;96927.91;;;7.63;73.87
32251;BME280;41295;48.518;9.206;2022-11-15T02:01:19;96919.38;;;7.60;74.27
32251;BME280;41295;48.518;9.206;2022-11-15T02:03:25;96922.81;;;7.60;74.41
32251;BME280;41295;48.518;9.206;2022-11-15T02:05:31;96916.00;;;7.57;74.18
32251;BME280;41295;48.518;9.206;2022-11-15T02:07:36;96915.31;;;7.51;74.20
32251;BME280;41295;48.518;9.206;2022-11-15T02:09:39;96915.41;;;7.48;74.19
32251;BME280;41295;48.518;9.206;2022-11-15T02:11:43;96911.19;;;7.45;74.34
32251;BME280;41295;48.518;9.206;2022-11-15T02:13:46;96906.03;;;7.43;74.05
32251;BME280;41295;48.518;9.206;2022-11-15T02:15:52;96916.56;;;7.39;74.04
32251;BME280;41295;48.518;9.206;2022-11-15T02:18:11;96908.88;;;7.36;73.99
32251;BME280;41295;48.518;9.206;2022-11-15T02:20:46;96909.78;;;7.33;74.19
32251;BME280;41295;48.518;9.206;2022-11-15T02:22:56;96903.16;;;7.24;74.22
32251;BME280;41295;48.518;9.206;2022-11-15T02:25:29;96898.06;;;7.21;74.33
32251;BME280;41295;48.518;9.206;2022-11-15T02:27:56;96900.81;;;7.16;74.16
32251;BME280;41295;48.518;9.206;2022-11-15T02:30:19;96900.81;;;7.16;74.89
32251;BME280;41295;48.518;9.206;2022-11-15T02:32:26;96892.13;;;7.17;75.50
32251;BME280;41295;48.518;9.206;2022-11-15T02:34:36;96893.78;;;7.20;75.48
32251;BME280;41295;48.518;9.206;2022-11-15T02:36:44;96886.88;;;7.19;75.51
32251;BME280;41295;48.518;9.206;2022-11-15T02:38:54;96887.84;;;7.16;75.78
32251;BME280;41295;48.518;9.206;2022-11-15T02:41:03;96890.28;;;7.21;75.57
32251;BME280;41295;48.518;9.206;2022-11-15T02:43:09;96886.22;;;7.12;75.03
32251;BME280;41295;48.518;9.206;2022-11-15T02:45:36;96883.69;;;7.10;75.11
32251;BME280;41295;48.518;9.206;2022-11-15T02:47:44;96881.03;;;7.12;75.15
32251;BME280;41295;48.518;9.206;2022-11-15T02:49:49;96885.31;;;7.13;74.76
32251;BME280;41295;48.518;9.206;2022-11-15T02:51:54;96878.38;;;7.14;74.93
32251;BME280;41295;48.518;9.206;2022-11-15T02:53:57;96878.34;;;7.15;75.10
32251;BME280;41295;48.518;9.206;2022-11-15T02:56:00;96881.78;;;7.16;74.78
32251;BME280;41295;48.518;9.206;2022-11-15T02:58:18;96872.28;;;7.16;74.82
32251;BME280;41295;48.518;9.206;2022-11-15T03:00:22;96878.34;;;7.15;75.00
32251;BME280;41295;48.518;9.206;2022-11-15T03:02:35;96878.28;;;7.17;74.96
32251;BME280;41295;48.518;9.206;2022-11-15T03:04:44;96873.16;;;7.15;75.12
32251;BME280;41295;48.518;9.206;2022-11-15T03:06:49;96862.84;;;7.14;75.00
32251;BME280;41295;48.518;9.206;2022-11-15T03:09:05;96858.31;;;7.20;74.85
32251;BME280;41295;48.518;9.206;2022-11-15T03:11:12;96855.97;;;7.13;74.70
32251;BME280;41295;48.518;9.206;2022-11-15T03:13:21;96855.28;;;7.06;74.82
32251;BME280;41295;48.518;9.206;2022-11-15T03:15:29;96853.69;;;7.02;74.26
32251;BME280;41295;48.518;9.206;2022-11-15T03:17:37;96847.84;;;6.95;74.49
32251;BME280;41295;48.518;9.206;2022-11-15T03:19:44;96844.44;;;6.93;74.85
32251;BME280;41295;48.518;9.206;2022-11-15T03:21:49;96843.59;;;6.92;74.98
32251;BME280;41295;48.518;9.206;2022-11-15T03:23:52;96841.84;;;6.93;74.78
32251;BME280;41295;48.518;9.206;2022-11-15T03:25:58;96846.19;;;6.92;75.06
32251;BME280;41295;48.518;9.206;2022-11-15T03:28:03;96835.00;;;6.90;75.24
32251;BME280;41295;48.518;9.206;2022-11-15T03:30:08;96838.34;;;6.94;75.82
32251;BME280;41295;48.518;9.206;2022-11-15T03:32:13;96840.91;;;6.95;76.14
32251;BME280;41295;48.518;9.206;2022-11-15T03:34:25;96841.66;;;6.99;76.40
32251;BME280;41295;48.518;9.206;2022-11-15T03:36:30;96833.78;;;7.02;76.56
32251;BME280;41295;48.518;9.206;2022-11-15T03:38:34;96834.63;;;7.03;76.68
32251;BME280;41295;48.518;9.206;2022-11-15T03:40:40;96827.66;;;7.05;76.55
32251;BME280;41295;48.518;9.206;2022-11-15T03:42:46;96825.94;;;7.05;76.39
32251;BME280;41295;48.518;9.206;2022-11-15T03:44:54;96824.22;;;7.04;75.80
32251;BME280;41295;48.518;9.206;2022-11-15T03:47:08;96826.06;;;7.01;75.53
32251;BME280;41295;48.518;9.206;2022-11-15T03:49:16;96823.66;;;6.94;75.83
32251;BME280;41295;48.518;9.206;2022-11-15T03:51:21;96814.09;;;6.96;76.55
32251;BME280;41295;48.518;9.206;2022-11-15T03:53:24;96827.06;;;6.96;76.66
32251;BME280;41295;48.518;9.206;2022-11-15T03:55:27;96808.91;;;6.96;76.93
32251;BME280;41295;48.518;9.206;2022-11-15T03:57:29;96823.66;;;6.94;77.29
32251;BME280;41295;48.518;9.206;2022-11-15T03:59:32;96826.06;;;7.01;77.30
32251;BME280;41295;48.518;9.206;2022-11-15T04:01:35;96816.53;;;7.01;77.44
32251;BME280;41295;48.518;9.206;2022-11-15T04:03:37;96819.19;;;7.00;77.31
32251;BME280;41295;48.518;9.206;2022-11-15T04:05:40;96819.19;;;7.00;77.04
32251;BME280;41295;48.518;9.206;2022-11-15T04:07:44;96816.59;;;7.00;76.78
32251;BME280;41295;48.518;9.206;2022-11-15T04:09:47;96821.06;;;6.94;76.65
32251;BME280;41295;48.518;9.206;2022-11-15T04:12:05;96820.16;;;6.95;76.66
32251;BME280;41295;48.518;9.206;2022-11-15T04:14:07;96826.16;;;6.97;76.08
32251;BME280;41295;48.518;9.206;2022-11-15T04:16:10;96821.13;;;6.93;75.79
32251;BME280;41295;48.518;9.206;2022-11-15T04:18:13;96817.88;;;6.86;75.33
32251;BME280;41295;48.518;9.206;2022-11-15T04:20:19;96811.13;;;6.80;75.31
32251;BME280;41295;48.518;9.206;2022-11-15T04:22:40;96817.31;;;6.74;75.58
32251;BME280;41295;48.518;9.206;2022-11-15T04:25:01;96824.19;;;6.76;75.72
32251;BME280;41295;48.518;9.206;2022-11-15T04:27:04;96815.66;;;6.72;75.92
32251;BME280;41295;48.518;9.206;2022-11-15T04:29:07;96818.31;;;6.70;75.66
32251;BME280;41295;48.518;9.206;2022-11-15T04:31:29;96810.63;;;6.67;75.61
32251;BME280;41295;48.518;9.206;2022-11-15T04:33:32;96819.34;;;6.65;75.51
32251;BME280;41295;48.518;9.206;2022-11-15T04:35:35;96808.13;;;6.64;75.42
32251;BME280;41295;48.518;9.206;2022-11-15T04:37:38;96807.22;;;6.65;75.32
32251;BME280;41295;48.518;9.206;2022-11-15T04:39:39;96807.28;;;6.64;75.36
32251;BME280;41295;48.518;9.206;2022-11-15T04:41:44;96809.75;;;6.67;75.19
32251;BME280;41295;48.518;9.206;2022-11-15T04:43:46;96805.44;;;6.67;75.50
32251;BME280;41295;48.518;9.206;2022-11-15T04:45:49;96808.94;;;6.66;75.54
32251;BME280;41295;48.518;9.206;2022-11-15T04:47:51;96804.63;;;6.65;75.69
32251;BME280;41295;48.518;9.206;2022-11-15T04:49:54;96799.50;;;6.64;76.07
32251;BME280;41295;48.518;9.206;2022-11-15T04:51:57;96802.09;;;6.64;75.98
32251;BME280;41295;48.518;9.206;2022-11-15T04:53:59;96802.09;;;6.64;75.96
32251;BME280;41295;48.518;9.206;2022-11-15T04:56:02;96803.00;;;6.63;75.91
32251;BME280;41295;48.518;9.206;2022-11-15T04:58:08;96794.47;;;6.59;75.65
32251;BME280;41295;48.518;9.206;2022-11-15T05:00:16;96797.00;;;6.60;75.59
32251;BME280;41295;48.518;9.206;2022-11-15T05:02:19;96796.97;;;6.62;74.75
32251;BME280;41295;48.518;9.206;2022-11-15T05:04:21;96792.94;;;6.52;75.04
32251;BME280;41295;48.518;9.206;2022-11-15T05:06:23;96795.63;;;6.48;75.37
32251;BME280;41295;48.518;9.206;2022-11-15T05:08:28;96792.13;;;6.49;75.14
32251;BME280;41295;48.518;9.206;2022-11-15T05:10:31;96782.75;;;6.45;75.45
32251;BME280;41295;48.518;9.206;2022-11-15T05:12:33;96784.41;;;6.48;75.83
32251;BME280;41295;48.518;9.206;2022-11-15T05:14:37;96791.31;;;6.47;75.88
32251;BME280;41295;48.518;9.206;2022-11-15T05:16:40;96790.47;;;6.47;75.89
32251;BME280;41295;48.518;9.206;2022-11-15T05:18:43;96799.06;;;6.49;75.78
32251;BME280;41295;48.518;9.206;2022-11-15T05:20:46;96786.91;;;6.51;75.88
32251;BME280;41295;48.518;9.206;2022-11-15T05:22:48;96784.41;;;6.48;75.92
32251;BME280;41295;48.518;9.206;2022-11-15T05:24:51;96780.88;;;6.50;75.97
32251;BME280;41295;48.518;9.206;2022-11-15T05:26:53;96789.34;;;6.56;76.29
32251;BME280;41295;48.518;9.206;2022-11-15T05:28:58;96779.81;;;6.58;76.39
32251;BME280;41295;48.518;9.206;2022-11-15T05:31:03;96778.06;;;6.58;76.44
32251;BME280;41295;48.518;9.206;2022-11-15T05:33:07;96783.19;;;6.60;76.24
32251;BME280;41295;48.518;9.206;2022-11-15T05:35:13;96786.69;;;6.59;76.74
32251;BME280;41295;48.518;9.206;2022-11-15T05:37:17;96787.47;;;6.63;76.77
32251;BME280;41295;48.518;9.206;2022-11-15T05:39:20;96777.91;;;6.65;77.13
32251;BME280;41295;48.518;9.206;2022-11-15T05:41:26;96774.34;;;6.67;77.11
32251;BME280;41295;48.518;9.206;2022-11-15T05:43:36;96771.75;;;6.67;77.34
32251;BME280;41295;48.518;9.206;2022-11-15T05:45:40;96772.63;;;6.68;77.13
32251;BME280;41295;48.518;9.206;2022-11-15T05:47:45;96771.75;;;6.67;77.21
32251;BME280;41295;48.518;9.206;2022-11-15T05:49:49;96770.03;;;6.68;77.07
32251;BME280;41295;48.518;9.206;2022-11-15T05:51:53;96781.16;;;6.71;76.90
32251;BME280;41295;48.518;9.206;2022-11-15T05:53:56;96769.97;;;6.69;77.04
32251;BME280;41295;48.518;9.206;2022-11-15T05:56:00;96779.31;;;6.75;76.84
32251;BME280;41295;48.518;9.206;2022-11-15T05:58:03;96774.25;;;6.70;76.70
32251;BME280;41295;48.518;9.206;2022-11-15T06:00:07;96772.56;;;6.69;76.75
32251;BME280;41295;48.518;9.206;2022-11-15T06:02:11;96771.81;;;6.66;76.71
32251;BME280;41295;48.518;9.206;2022-11-15T06:04:15;96774.50;;;6.63;76.17
32251;BME280;41295;48.518;9.206;2022-11-15T06:06:18;96775.44;;;6.60;76.48
32251;BME280;41295;48.518;9.206;2022-11-15T06:08:20;96771.97;;;6.59;76.90
32251;BME280;41295;48.518;9.206;2022-11-15T06:10:23;96768.69;;;6.54;76.39
32251;BME280;41295;48.518;9.206;2022-11-15T06:12:25;96769.50;;;6.56;76.56
32251;BME280;41295;48.518;9.206;2022-11-15T06:14:28;96772.22;;;6.52;76.75
32251;BME280;41295;48.518;9.206;2022-11-15T06:16:31;96767.97;;;6.49;76.95
32251;BME280;41295;48.518;9.206;2022-11-15T06:18:35;96771.38;;;6.51;76.90
32251;BME280;41295;48.518;9.206;2022-11-15T06:20:39;96772.31;;;6.48;77.04
32251;BME280;41295;48.518;9.206;2022-11-15T06:22:41;96770.50;;;6.50;77.16
32251;BME280;41295;48.518;9.206;2022-11-15T06:24:44;96772.34;;;6.47;77.13
32251;BME280;41295;48.518;9.206;2022-11-15T06:26:48;96770.59;;;6.47;77.30
32251;BME280;41295;48.518;9.206;2022-11-15T06:28:50;96764.56;;;6.47;77.26
32251;BME280;41295;48.518;9.206;2022-11-15T06:30:53;96770.59;;;6.47;76.99
32251;BME280;41295;48.518;9.206;2022-11-15T06:32:59;96776.59;;;6.49;77.11
32251;BME280;41295;48.518;9.206;2022-11-15T06:35:04;96772.22;;;6.52;77.17
32251;BME280;41295;48.518;9.206;2022-11-15T06:37:08;96774.75;;;6.53;76.98
32251;BME280;41295;48.518;9.206;2022-11-15T06:39:11;96773.03;;;6.54;77.26
32251;BME280;41295;48.518;9.206;2022-11-15T06:41:14;96777.31;;;6.55;77.21
32251;BME280;41295;48.518;9.206;2022-11-15T06:43:18;96771.19;;;6.57;77.53
32251;BME280;41295;48.518;9.206;2022-11-15T06:45:20;96773.78;;;6.57;77.54
32251;BME280;41295;48.518;9.206;2022-11-15T06:47:23;96774.56;;;6.59;77.55
32251;BME280;41295;48.518;9.206;2022-11-15T06:49:25;96771.91;;;6.63;77.69
32251;BME280;41295;48.518;9.206;2022-11-15T06:51:30;96777.03;;;6.64;77.50
32251;BME280;41295;48.518;9.206;2022-11-15T06:53:35;96771.75;;;6.67;77.68
32251;BME280;41295;48.518;9.206;2022-11-15T06:55:37;96774.25;;;6.70;77.53
32251;BME280;41295;48.518;9.206;2022-11-15T06:57:46;96774.25;;;6.70;77.53
32251;BME280;41295;48.518;9.206;2022-11-15T06:59:49;96778.47;;;6.74;77.73
32251;BME280;41295;48.518;9.206;2022-11-15T07:01:51;96780.94;;;6.78;77.75
32251;BME280;41295;48.518;9.206;2022-11-15T07:03:54;96778.34;;;6.78;78.17
32251;BME280;41295;48.518;9.206;2022-11-15T07:05:57;96778.25;;;6.81;78.35
32251;BME280;41295;48.518;9.206;2022-11-15T07:08:07;96786.00;;;6.82;78.31
32251;BME280;41295;48.518;9.206;2022-11-15T07:10:12;96779.88;;;6.85;78.65
32251;BME280;41295;48.518;9.206;2022-11-15T07:12:14;96776.41;;;6.86;78.81
32251;BME280;41295;48.518;9.206;2022-11-15T07:14:17;96777.13;;;6.90;78.64
32251;BME280;41295;48.518;9.206;2022-11-15T07:16:20;96784.03;;;6.91;78.71
32251;BME280;41295;48.518;9.206;2022-11-15T07:18:22;96777.88;;;6.93;79.08
32251;BME280;41295;48.518;9.206;2022-11-15T07:20:25;96781.28;;;6.95;78.80
32251;BME280;41295;48.518;9.206;2022-11-15T07:22:27;96781.16;;;7.00;78.83
32251;BME280;41295;48.518;9.206;2022-11-15T07:24:30;96785.38;;;7.03;79.00
32251;BME280;41295;48.518;9.206;2022-11-15T07:26:34;96784.50;;;7.04;78.85
32251;BME280;41295;48.518;9.206;2022-11-15T07:28:37;96784.41;;;7.07;79.00
32251;BME280;41295;48.518;9.206;2022-11-15T07:30:40;96780.91;;;7.08;79.26
32251;BME280;41295;48.518;9.206;2022-11-15T07:32:45;96774.72;;;7.12;79.28
32251;BME280;41295;48.518;9.206;2022-11-15T07:34:48;96773.00;;;7.13;79.40
32251;BME280;41295;48.518;9.206;2022-11-15T07:36:51;96771.16;;;7.16;79.79
32251;BME280;41295;48.518;9.206;2022-11-15T07:38:54;96767.66;;;7.17;79.58
32251;BME280;41295;48.518;9.206;2022-11-15T07:40:57;96770.13;;;7.20;79.80
32251;BME280;41295;48.518;9.206;2022-11-15T07:43:03;96764.06;;;7.21;79.94
32251;BME280;41295;48.518;9.206;2022-11-15T07:45:06;96767.41;;;7.25;80.02
32251;BME280;41295;48.518;9.206;2022-11-15T07:47:09;96768.16;;;7.29;79.70
32251;BME280;41295;48.518;9.206;2022-11-15T07:49:12;96768.84;;;7.34;79.78
32251;BME280;41295;48.518;9.206;2022-11-15T07:51:16;96762.75;;;7.35;79.49
32251;BME280;41295;48.518;9.206;2022-11-15T07:53:21;96760.06;;;7.38;80.02
32251;BME280;41295;48.518;9.206;2022-11-15T07:55:24;96762.50;;;7.43;79.58
32251;BME280;41295;48.518;9.206;2022-11-15T07:57:29;96760.66;;;7.46;80.08
32251;BME280;41295;48.518;9.206;2022-11-15T07:59:33;96760.56;;;7.50;79.98
32251;BME280;41295;48.518;9.206;2022-11-15T08:01:36;96754.38;;;7.54;80.40
32251;BME280;41295;48.518;9.206;2022-11-15T08:03:38;96756.00;;;7.56;80.54
32251;BME280;41295;48.518;9.206;2022-11-15T08:05:42;96754.16;;;7.60;80.30
32251;BME280;41295;48.518;9.206;2022-11-15T08:07:45;96748.84;;;7.63;80.52
32251;BME280;41295;48.518;9.206;2022-11-15T08:09:47;96746.19;;;7.66;80.63
32251;BME280;41295;48.518;9.206;2022-11-15T08:11:50;96750.44;;;7.67;80.36
32251;BME280;41295;48.518;9.206;2022-11-15T08:13:52;96745.09;;;7.72;80.31
32251;BME280;41295;48.518;9.206;2022-11-15T08:15:58;96745.00;;;7.75;80.53
32251;BME280;41295;48.518;9.206;2022-11-15T08:18:03;96746.69;;;7.76;80.75
32251;BME280;41295;48.518;9.206;2022-11-15T08:20:07;96747.44;;;7.80;80.42
32251;BME280;41295;48.518;9.206;2022-11-15T08:22:10;96742.13;;;7.83;80.59
32251;BME280;41295;48.518;9.206;2022-11-15T08:24:13;96743.84;;;7.84;80.50
32251;BME280;41295;48.518;9.206;2022-11-15T08:26:15;96744.59;;;7.86;80.44
32251;BME280;41295;48.518;9.206;2022-11-15T08:28:18;96736.78;;;7.88;80.16
32251;BME280;41295;48.518;9.206;2022-11-15T08:30:21;96734.97;;;7.90;80.39
32251;BME280;41295;48.518;9.206;2022-11-15T08:32:25;96738.41;;;7.90;80.57
32251;BME280;41295;48.518;9.206;2022-11-15T08:34:28;96742.66;;;7.93;80.16
32251;BME280;41295;48.518;9.206;2022-11-15T08:36:30;96734.81;;;7.94;80.51
32251;BME280;41295;48.518;9.206;2022-11-15T08:38:46;96733.84;;;7.97;80.57
32251;BME280;41295;48.518;9.206;2022-11-15T08:40:48;96730.38;;;7.98;80.50
32251;BME280;41295;48.518;9.206;2022-11-15T08:42:52;96732.91;;;8.00;80.41
32251;BME280;41295;48.518;9.206;2022-11-15T08:44:55;96734.63;;;7.99;80.47
32251;BME280;41295;48.518;9.206;2022-11-15T08:46:58;96724.19;;;8.01;80.45
32251;BME280;41295;48.518;9.206;2022-11-15T08:49:02;96725.84;;;8.03;80.44
32251;BME280;41295;48.518;9.206;2022-11-15T08:51:05;96730.13;;;8.04;80.37
32251;BME280;41295;48.518;9.206;2022-11-15T08:53:08;96716.19;;;8.07;80.13
32251;BME280;41295;48.518;9.206;2022-11-15T08:55:10;96714.41;;;8.09;79.93
32251;BME280;41295;48.518;9.206;2022-11-15T08:57:13;96721.16;;;8.13;79.51
32251;BME280;41295;48.518;9.206;2022-11-15T08:59:16;96717.63;;;8.16;79.80
32251;BME280;41295;48.518;9.206;2022-11-15T09:01:20;96718.41;;;8.18;79.29
32251;BME280;41295;48.518;9.206;2022-11-15T09:03:22;96724.34;;;8.22;79.24
32251;BME280;41295;48.518;9.206;2022-11-15T09:05:26;96712.91;;;8.26;78.88
32251;BME280;41295;48.518;9.206;2022-11-15T09:07:29;96712.81;;;8.29;79.07
32251;BME280;41295;48.518;9.206;2022-11-15T09:09:33;96709.25;;;8.32;78.77
32251;BME280;41295;48.518;9.206;2022-11-15T09:11:35;96703.91;;;8.35;78.99
32251;BME280;41295;48.518;9.206;2022-11-15T09:13:38;96708.09;;;8.39;79.03
32251;BME280;41295;48.518;9.206;2022-11-15T09:15:41;96706.31;;;8.41;78.91
32251;BME280;41295;48.518;9.206;2022-11-15T09:17:44;96707.03;;;8.45;78.69
32251;BME280;41295;48.518;9.206;2022-11-15T09:19:46;96706.91;;;8.48;79.02
32251;BME280;41295;48.518;9.206;2022-11-15T09:21:51;96706.78;;;8.51;78.64
32251;BME280;41295;48.518;9.206;2022-11-15T09:23:53;96704.91;;;8.54;78.80
32251;BME280;41295;48.518;9.206;2022-11-15T09:26:00;96709.13;;;8.59;79.14
32251;BME280;41295;48.518;9.206;2022-11-15T09:28:05;96698.72;;;8.59;79.01
32251;BME280;41295;48.518;9.206;2022-11-15T09:30:09;96711.66;;;8.60;78.81
32251;BME280;41295;48.518;9.206;2022-11-15T09:32:12;96708.13;;;8.63;78.71
32251;BME280;41295;48.518;9.206;2022-11-15T09:34:14;96708.88;;;8.65;79.02
32251;BME280;41295;48.518;9.206;2022-11-15T09:36:17;96704.41;;;8.69;79.04
32251;BME280;41295;48.518;9.206;2022-11-15T09:38:21;96708.66;;;8.71;79.54
32251;BME280;41295;48.518;9.206;2022-11-15T09:40:24;96704.25;;;8.73;79.19
32251;BME280;41295;48.518;9.206;2022-11-15T09:42:38;96706.72;;;8.76;79.26
32251;BME280;41295;48.518;9.206;2022-11-15T09:45:01;96694.50;;;8.78;79.51
32251;BME280;41295;48.518;9.206;2022-11-15T09:47:27;96698.72;;;8.81;79.46
32251;BME280;41295;48.518;9.206;2022-11-15T09:49:33;96697.69;;;8.85;79.20
32251;BME280;41295;48.518;9.206;2022-11-15T09:51:37;96700.22;;;8.87;79.13
32251;BME280;41295;48.518;9.206;2022-11-15T09:53:56;96707.75;;;8.95;78.83
32251;BME280;41295;48.518;9.206;2022-11-15T09:56:21;96699.00;;;8.96;78.88
32251;BME280;41295;48.518;9.206;2022-11-15T09:58:27;96696.28;;;8.99;78.63
32251;BME280;41295;48.518;9.206;2022-11-15T10:00:35;96690.84;;;9.05;78.28
32251;BME280;41295;48.518;9.206;2022-11-15T10:03:13;96692.59;;;9.05;78.23
32251;BME280;41295;48.518;9.206;2022-11-15T10:05:19;96695.06;;;9.08;78.40
32251;BME280;41295;48.518;9.206;2022-11-15T10:07:26;96691.44;;;9.12;78.17
32251;BME280;41295;48.518;9.206;2022-11-15T10:09:35;96677.22;;;9.21;78.22
32251;BME280;41295;48.518;9.206;2022-11-15T10:11:40;96678.13;;;9.20;78.25
32251;BME280;41295;48.518;9.206;2022-11-15T10:13:46;96676.31;;;9.22;78.26
32251;BME280;41295;48.518;9.206;2022-11-15T10:15:51;96687.59;;;9.21;78.25
32251;BME280;41295;48.518;9.206;2022-11-15T10:18:08;96681.56;;;9.20;78.35
32251;BME280;41295;48.518;9.206;2022-11-15T10:20:18;96685.06;;;9.19;77.90
32251;BME280;41295;48.518;9.206;2022-11-15T10:22:26;96676.25;;;9.23;77.89
32251;BME280;41295;48.518;9.206;2022-11-15T10:24:35;96669.91;;;9.29;77.66
32251;BME280;41295;48.518;9.206;2022-11-15T10:26:45;96665.78;;;9.25;77.65
32251;BME280;41295;48.518;9.206;2022-11-15T10:28:48;96666.56;;;9.27;77.73
32251;BME280;41295;48.518;9.206;2022-11-15T10:30:53;96655.09;;;9.31;77.64
32251;BME280;41295;48.518;9.206;2022-11-15T10:32:56;96660.03;;;9.37;77.58
32251;BME280;41295;48.518;9.206;2022-11-15T10:34:59;96662.66;;;9.37;77.55
32251;BME280;41295;48.518;9.206;2022-11-15T10:37:01;96657.31;;;9.41;76.95
32251;BME280;41295;48.518;9.206;2022-11-15T10:39:04;96658.97;;;9.42;76.85
32251;BME280;41295;48.518;9.206;2022-11-15T10:41:08;96656.06;;;9.49;76.70
32251;BME280;41295;48.518;9.206;2022-11-15T10:43:16;96666.47;;;9.49;76.46
32251;BME280;41295;48.518;9.206;2022-11-15T10:45:28;96653.63;;;9.66;76.16
32251;BME280;41295;48.518;9.206;2022-11-15T10:47:32;96650.97;;;9.67;75.16
32251;BME280;41295;48.518;9.206;2022-11-15T10:49:53;96642.25;;;9.68;75.11
32251;BME280;41295;48.518;9.206;2022-11-15T10:51:57;96645.75;;;9.67;75.23
32251;BME280;41295;48.518;9.206;2022-11-15T10:54:00;96640.63;;;9.66;75.46
32251;BME280;41295;48.518;9.206;2022-11-15T10:56:12;96641.47;;;9.66;75.45
32251;BME280;41295;48.518;9.206;2022-11-15T10:58:22;96638.03;;;9.66;75.70
32251;BME280;41295;48.518;9.206;2022-11-15T11:00:32;96631.97;;;9.65;75.43
32251;BME280;41295;48.518;9.206;2022-11-15T11:02:37;96638.88;;;9.66;75.75
32251;BME280;41295;48.518;9.206;2022-11-15T11:04:49;96631.97;;;9.65;75.92
32251;BME280;41295;48.518;9.206;2022-11-15T11:06:54;96637.16;;;9.65;76.46
32251;BME280;41295;48.518;9.206;2022-11-15T11:08:58;96634.56;;;9.65;76.42
32251;BME280;41295;48.518;9.206;2022-11-15T11:11:03;96625.78;;;9.68;76.25
32251;BME280;41295;48.518;9.206;2022-11-15T11:13:14;96618.75;;;9.70;76.14